Time;durP1;ratioP1;P1;durP2;ratioP2;P2;SDS_P1;SDS_P2;PMS_P1;PMS_P2;Temp;Humidity;BMP_temperature;BMP_pressure;BME280_temperature;BME280_humidity;BME280_pressure;Samples;Min_cycle;Max_cycle;Signal;HPM_P1;HPM_P2
2021/12/11 00:02:22;;;;;;;121.60;31.63;;;;;;;2.53;77.24;99971.69;5034097;28;20053;-66
2021/12/11 00:04:56;;;;;;;132.38;29.73;;;;;;;2.50;77.43;99967.47;5050921;28;20056;-65
2021/12/11 00:07:25;;;;;;;113.93;30.08;;;;;;;2.54;77.51;99976.81;5054884;28;20148;-65
2021/12/11 00:09:56;;;;;;;120.43;32.05;;;;;;;2.62;77.27;99980.03;5050551;28;20041;-65
2021/12/11 00:12:25;;;;;;;109.30;31.10;;;;;;;2.61;77.54;99983.50;5050901;28;20077;-65
2021/12/11 00:14:57;;;;;;;143.75;31.13;;;;;;;2.68;77.24;99990.19;5051288;28;20049;-65
2021/12/11 00:17:28;;;;;;;191.20;34.15;;;;;;;2.66;77.18;99991.94;5051776;28;20049;-63
2021/12/11 00:19:55;;;;;;;385.88;47.05;;;;;;;2.50;76.98;99995.06;5058896;28;20044;-65
2021/12/11 00:22:24;;;;;;;328.17;41.90;;;;;;;2.44;77.56;99991.75;5054227;28;20078;-66
2021/12/11 00:24:51;;;;;;;205.27;35.20;;;;;;;2.55;77.48;100001.78;5031025;28;20045;-65
2021/12/11 00:27:24;;;;;;;252.95;36.58;;;;;;;2.63;77.03;100011.91;5034507;28;20042;-65
2021/12/11 00:29:51;;;;;;;128.90;33.95;;;;;;;2.71;76.50;100004.75;5047243;28;20090;-65
2021/12/11 00:32:23;;;;;;;125.93;30.52;;;;;;;2.68;76.81;100008.28;5055562;28;20044;-67
2021/12/11 00:34:51;;;;;;;119.20;29.95;;;;;;;2.68;76.82;100010.03;5053178;28;20072;-66
2021/12/11 00:37:22;;;;;;;332.90;47.20;;;;;;;2.52;77.12;100004.47;5042276;28;20073;-66
2021/12/11 00:39:51;;;;;;;177.82;33.60;;;;;;;2.55;77.08;100012.13;5049781;28;20516;-66
2021/12/11 00:42:22;;;;;;;114.03;29.38;;;;;;;2.58;76.93;100017.25;5050283;28;20091;-66
2021/12/11 00:44:52;;;;;;;151.43;31.30;;;;;;;2.64;76.76;100019.63;5050438;28;20095;-66
2021/12/11 00:47:21;;;;;;;108.43;29.73;;;;;;;2.58;76.55;100022.41;5050460;28;20052;-66
2021/12/11 00:49:53;;;;;;;306.30;43.88;;;;;;;2.42;76.80;100026.34;5055890;28;20425;-66
2021/12/11 00:52:28;;;;;;;97.63;27.70;;;;;;;2.50;77.25;100031.31;5051278;28;20059;-66
2021/12/11 00:54:55;;;;;;;98.90;28.80;;;;;;;2.53;77.22;100042.41;5041895;28;20065;-66
2021/12/11 00:57:23;;;;;;;97.55;28.55;;;;;;;2.64;77.02;100042.94;5047030;28;20150;-66
2021/12/11 01:00:04;;;;;;;145.05;28.52;;;;;;;2.67;76.66;100054.91;5069982;28;20550;-66
2021/12/11 01:02:31;;;;;;;;;;;;;;;2.79;76.42;100051.97;5054629;28;20052;-66
2021/12/11 01:04:58;;;;;;;86.55;26.95;;;;;;;2.74;76.07;100052.09;5045843;28;19967;-66
2021/12/11 01:07:30;;;;;;;84.63;26.80;;;;;;;2.72;76.06;100053.91;5040051;28;20053;-66
2021/12/11 01:10:01;;;;;;;165.50;33.50;;;;;;;2.32;77.25;100066.31;5050603;28;20045;-66
2021/12/11 01:12:41;;;;;;;160.05;26.83;;;;;;;2.35;76.99;100069.66;5055961;28;20061;-66
2021/12/11 01:15:14;;;;;;;131.77;31.30;;;;;;;2.37;77.54;100083.41;5064311;28;20041;-66
2021/12/11 01:17:46;;;;;;;187.05;33.17;;;;;;;2.52;77.07;100074.34;5058568;28;20510;-66
2021/12/11 01:20:18;;;;;;;153.48;31.83;;;;;;;2.61;76.75;100076.66;5070337;28;20082;-66
2021/12/11 01:22:45;;;;;;;119.45;29.95;;;;;;;2.67;76.68;100085.97;5061782;28;20481;-66
2021/12/11 01:25:15;;;;;;;336.23;39.60;;;;;;;2.50;76.69;100088.22;5049768;28;20044;-66
2021/12/11 01:27:47;;;;;;;292.95;36.70;;;;;;;2.49;76.89;100096.88;5051990;28;20060;-66
2021/12/11 01:30:17;;;;;;;146.82;28.98;;;;;;;2.57;76.64;100100.94;5069858;28;20060;-66
2021/12/11 01:32:44;;;;;;;461.33;45.75;;;;;;;2.57;76.05;100106.13;5070165;28;20044;-66
2021/12/11 01:35:14;;;;;;;129.52;29.20;;;;;;;2.59;76.45;100114.66;5051557;28;20490;-66
2021/12/11 01:37:41;;;;;;;343.08;38.88;;;;;;;2.67;76.10;100123.06;5029449;28;20049;-66
2021/12/11 01:40:11;;;;;;;390.52;42.78;;;;;;;2.63;76.29;100121.47;5057092;28;20044;-66
2021/12/11 01:42:38;;;;;;;269.90;34.33;;;;;;;2.59;76.43;100125.03;5055762;28;20076;-66
2021/12/11 01:45:11;;;;;;;145.27;32.10;;;;;;;2.69;76.13;100126.47;5049798;28;20629;-66
2021/12/11 01:47:41;;;;;;;373.13;42.20;;;;;;;2.50;76.75;100138.25;5049349;28;20512;-66
2021/12/11 01:50:13;;;;;;;106.90;29.00;;;;;;;2.56;76.92;100145.81;5049436;28;20114;-66
2021/12/11 01:52:44;;;;;;;158.20;32.70;;;;;;;2.61;76.63;100145.69;5049604;28;20161;-66
2021/12/11 01:55:12;;;;;;;;;;;;;;;2.61;76.56;100149.13;5048959;28;20045;-66
2021/12/11 01:57:39;;;;;;;119.13;30.88;;;;;;;2.67;76.69;100146.38;5050751;28;19921;-66
2021/12/11 02:00:13;;;;;;;151.98;30.60;;;;;;;2.69;76.36;100152.34;5029551;28;20461;-66
2021/12/11 02:02:45;;;;;;;441.10;45.28;;;;;;;2.62;75.95;100152.59;5052614;28;20098;-66
2021/12/11 02:05:14;;;;;;;338.80;41.67;;;;;;;2.65;76.01;100155.94;5053313;28;20045;-66
2021/12/11 02:07:43;;;;;;;336.45;42.00;;;;;;;2.60;75.99;100159.53;5059535;28;20044;-66
2021/12/11 02:10:17;;;;;;;244.40;35.85;;;;;;;2.56;75.98;100168.25;5062203;28;20067;-66
2021/12/11 02:12:44;;;;;;;228.25;33.08;;;;;;;2.48;76.31;100175.41;5049332;28;20094;-66
2021/12/11 02:15:15;;;;;;;324.83;39.50;;;;;;;2.46;76.70;100170.28;5050277;28;20474;-66
2021/12/11 02:17:45;;;;;;;193.52;33.00;;;;;;;2.66;76.49;100172.31;5069132;28;20045;-66
2021/12/11 02:20:14;;;;;;;497.27;48.35;;;;;;;2.55;76.31;100182.94;5052705;28;20423;-66
2021/12/11 02:22:46;;;;;;;150.50;33.10;;;;;;;2.63;76.08;100188.75;5049113;28;20488;-66
2021/12/11 02:25:18;;;;;;;298.30;39.47;;;;;;;2.38;76.58;100187.75;5046253;28;20048;-66
2021/12/11 02:27:49;;;;;;;115.13;28.35;;;;;;;2.50;76.04;100182.25;5041276;28;20049;-66
2021/12/11 02:30:20;;;;;;;;;;;;;;;2.48;76.76;100188.34;5042372;28;20045;-66
2021/12/11 02:32:51;;;;;;;;;;;;;;;2.54;76.76;100189.03;5049513;28;19925;-66
2021/12/11 02:35:22;;;;;;;150.93;30.33;;;;;;;2.56;76.71;100184.63;5043420;28;20300;-66
2021/12/11 02:37:54;;;;;;;276.55;36.40;;;;;;;2.54;76.63;100190.75;5048604;28;20048;-67
2021/12/11 02:40:27;;;;;;;149.27;29.30;;;;;;;2.61;76.63;100198.31;5051576;28;20045;-66
2021/12/11 02:42:59;;;;;;;140.55;29.20;;;;;;;2.59;76.44;100192.31;5048966;28;20052;-66
2021/12/11 02:45:30;;;;;;;161.68;31.65;;;;;;;2.63;76.15;100199.09;5049896;28;20079;-66
2021/12/11 02:48:01;;;;;;;91.32;25.50;;;;;;;2.62;75.65;100197.44;5048540;28;20139;-66
2021/12/11 02:50:30;;;;;;;;;;;;;;;2.49;76.50;100211.59;5047397;28;20049;-66
2021/12/11 02:53:00;;;;;;;177.43;29.88;;;;;;;2.48;76.66;100215.06;5053509;28;19939;-66
2021/12/11 02:55:35;;;;;;;121.18;28.30;;;;;;;2.47;76.46;100218.56;5034559;28;20093;-66
2021/12/11 02:58:08;;;;;;;112.97;29.38;;;;;;;2.35;76.76;100218.88;5036516;28;20072;-66
2021/12/11 03:00:39;;;;;;;290.52;36.05;;;;;;;2.23;77.06;100229.53;5046962;28;20053;-66
2021/12/11 03:03:09;;;;;;;124.90;29.23;;;;;;;2.31;77.46;100236.22;5048386;28;20048;-66
2021/12/11 03:05:42;;;;;;;187.23;32.85;;;;;;;2.44;76.91;100236.72;5045650;28;20497;-66
2021/12/11 03:08:13;;;;;;;98.13;25.45;;;;;;;2.56;76.58;100246.75;5043050;28;20048;-66
2021/12/11 03:10:42;;;;;;;89.22;27.02;;;;;;;2.72;76.14;100242.88;5067097;28;20051;-66
2021/12/11 03:13:09;;;;;;;85.07;24.80;;;;;;;2.73;76.14;100238.53;5052650;28;20122;-66
2021/12/11 03:15:36;;;;;;;374.42;43.78;;;;;;;2.66;75.36;100244.78;5054989;28;20049;-66
2021/12/11 03:18:05;;;;;;;82.47;26.23;;;;;;;2.52;76.13;100252.03;5052253;28;20073;-66
2021/12/11 03:20:33;;;;;;;225.48;33.55;;;;;;;2.50;76.18;100256.44;5052453;28;20076;-66
2021/12/11 03:23:00;;;;;;;135.93;27.42;;;;;;;2.49;76.62;100255.56;5052601;28;20071;-66
2021/12/11 03:25:31;;;;;;;129.20;28.33;;;;;;;2.56;76.44;100261.44;5037508;28;20137;-66
2021/12/11 03:27:58;;;;;;;107.40;27.13;;;;;;;2.62;76.02;100274.22;5049530;28;20048;-66
2021/12/11 03:30:27;;;;;;;235.50;31.08;;;;;;;2.43;76.07;100268.69;5052218;28;20049;-66
2021/12/11 03:32:56;;;;;;;115.57;30.38;;;;;;;2.57;76.31;100271.75;5052319;28;20076;-66
2021/12/11 03:35:24;;;;;;;113.60;30.00;;;;;;;2.51;76.39;100282.28;5037780;28;20045;-66
2021/12/11 03:37:50;;;;;;;93.13;27.27;;;;;;;2.59;76.59;100276.91;5043715;28;20057;-66
2021/12/11 03:40:18;;;;;;;103.53;27.48;;;;;;;2.56;76.72;100282.97;5053480;28;20137;-66
2021/12/11 03:42:49;;;;;;;337.25;38.83;;;;;;;2.50;76.70;100290.94;5072342;28;20517;-66
2021/12/11 03:45:20;;;;;;;139.20;30.50;;;;;;;2.56;76.79;100295.06;5070158;28;20040;-66
2021/12/11 03:47:51;;;;;;;124.95;29.67;;;;;;;2.64;76.65;100299.16;5067216;28;20068;-65
2021/12/11 03:50:20;;;;;;;106.72;29.50;;;;;;;2.84;76.03;100302.09;5051900;28;20064;-65
2021/12/11 03:52:48;;;;;;;346.00;37.58;;;;;;;2.32;77.36;100306.91;5052313;28;20095;-65
2021/12/11 03:55:18;;;;;;;158.88;29.85;;;;;;;2.05;78.04;100312.75;5052267;28;20068;-65
2021/12/11 03:57:46;;;;;;;128.15;31.65;;;;;;;2.56;77.46;100318.38;5051602;28;20098;-65
2021/12/11 04:00:20;;;;;;;162.88;32.97;;;;;;;2.67;76.94;100317.19;5048752;28;20085;-66
2021/12/11 04:02:48;;;;;;;390.48;42.25;;;;;;;2.71;76.90;100325.75;5071583;28;20044;-66
2021/12/11 04:05:15;;;;;;;344.67;46.22;;;;;;;2.66;76.68;100318.09;5038171;28;20422;-66
2021/12/11 04:07:46;;;;;;;182.57;37.03;;;;;;;2.66;77.24;100325.84;5043185;28;20045;-66
2021/12/11 04:10:16;;;;;;;224.32;37.08;;;;;;;2.66;77.50;100333.63;5063713;28;20060;-66
2021/12/11 04:12:43;;;;;;;118.45;26.38;;;;;;;2.76;77.05;100345.44;5071629;28;20075;-66
2021/12/11 04:15:12;;;;;;;435.38;56.20;;;;;;;2.64;77.22;100345.75;5057371;28;20095;-66
2021/12/11 04:17:39;;;;;;;398.95;51.75;;;;;;;2.44;77.99;100348.00;5030745;28;20077;-66
2021/12/11 04:20:09;;;;;;;651.13;58.50;;;;;;;2.55;77.68;100360.69;5041878;28;20064;-66
2021/12/11 04:22:36;;;;;;;485.85;49.58;;;;;;;2.51;77.36;100361.66;5055216;28;20072;-65
2021/12/11 04:25:03;;;;;;;526.53;52.75;;;;;;;2.29;77.97;100363.91;5056013;28;20041;-65
2021/12/11 04:27:29;;;;;;;236.30;40.45;;;;;;;2.41;78.30;100361.00;5034933;28;20073;-66
2021/12/11 04:29:56;;;;;;;272.95;39.70;;;;;;;2.67;77.35;100363.78;5044812;28;20068;-66
2021/12/11 04:32:28;;;;;;;526.10;53.40;;;;;;;2.41;77.94;100363.59;5051139;28;20528;-66
2021/12/11 04:34:54;;;;;;;474.02;49.47;;;;;;;2.45;77.72;100367.81;5039710;28;20045;-66
2021/12/11 04:37:24;;;;;;;329.20;40.95;;;;;;;2.44;78.20;100379.03;5034036;28;20053;-66
2021/12/11 04:39:57;;;;;;;312.42;41.28;;;;;;;2.67;77.36;100374.16;5067177;28;20049;-66
2021/12/11 04:42:35;;;;;;;194.55;31.90;;;;;;;2.65;77.19;100380.25;5071131;28;20076;-66
2021/12/11 04:45:03;;;;;;;270.15;36.10;;;;;;;2.63;77.02;100375.13;5057871;28;20044;-66
2021/12/11 04:47:36;;;;;;;348.17;40.25;;;;;;;2.51;77.57;100378.03;5050776;28;20053;-67
2021/12/11 04:50:14;;;;;;;256.63;32.85;;;;;;;2.15;78.64;100384.06;5050941;28;20048;-66
2021/12/11 04:52:51;;;;;;;355.00;41.33;;;;;;;2.33;78.09;100387.06;5049970;28;20175;-66
2021/12/11 04:55:30;;;;;;;238.52;33.47;;;;;;;2.50;77.54;100389.25;5047940;28;20382;-66
2021/12/11 04:58:14;;;;;;;241.68;32.95;;;;;;;2.48;77.79;100401.38;5050583;28;20075;-66
2021/12/11 05:00:55;;;;;;;173.80;29.98;;;;;;;2.74;76.75;100403.31;5051759;28;20084;-66
2021/12/11 05:06:18;;;;;;;134.88;28.23;;;;;;;2.24;78.19;100413.16;5050190;28;20504;-66
2021/12/11 05:09:14;;;;;;;131.43;29.77;;;;;;;2.39;77.94;100428.34;5050263;28;20428;-66
2021/12/11 05:11:48;;;;;;;308.50;37.90;;;;;;;2.48;77.29;100424.66;5050145;28;20064;-66
2021/12/11 05:14:17;;;;;;;203.85;33.30;;;;;;;2.43;77.55;100435.16;5064709;28;20044;-66
2021/12/11 05:16:44;;;;;;;310.50;35.80;;;;;;;2.34;77.45;100445.69;5049567;28;20057;-66
2021/12/11 05:19:12;;;;;;;229.32;31.20;;;;;;;2.38;77.37;100447.31;5048541;28;20450;-66
2021/12/11 05:21:40;;;;;;;306.40;35.35;;;;;;;2.26;78.08;100451.91;5052574;28;20103;-66
2021/12/11 05:24:07;;;;;;;212.90;29.40;;;;;;;1.81;78.86;100464.94;5042187;28;20642;-66
2021/12/11 05:26:35;;;;;;;252.70;35.35;;;;;;;1.92;78.82;100465.56;5033876;28;20068;-66
2021/12/11 05:29:01;;;;;;;148.68;28.63;;;;;;;2.07;78.51;100461.00;5049642;28;20041;-66
2021/12/11 05:31:28;;;;;;;302.73;35.00;;;;;;;1.79;79.23;100461.56;5070258;28;20052;-66
2021/12/11 05:33:55;;;;;;;123.60;27.05;;;;;;;2.02;78.92;100462.81;5050108;28;20041;-66
2021/12/11 05:36:22;;;;;;;151.05;29.33;;;;;;;2.06;78.52;100474.78;5039646;28;20072;-66
2021/12/11 05:38:50;;;;;;;147.82;29.92;;;;;;;2.27;77.42;100476.91;5049810;28;20094;-66
2021/12/11 05:41:21;;;;;;;143.35;31.13;;;;;;;2.21;77.46;100475.31;5050047;28;20520;-66
2021/12/11 05:43:49;;;;;;;182.75;32.63;;;;;;;2.20;77.90;100477.94;5068938;28;20040;-66
2021/12/11 05:46:16;;;;;;;142.15;29.98;;;;;;;2.00;78.70;100485.25;5069880;28;20098;-66
2021/12/11 05:48:46;;;;;;;165.73;30.50;;;;;;;2.23;78.19;100488.19;5065447;28;20121;-66
2021/12/11 05:51:17;;;;;;;144.23;30.08;;;;;;;2.29;77.64;100495.84;5049837;28;20110;-66
2021/12/11 05:53:44;;;;;;;143.50;30.15;;;;;;;2.10;77.91;100495.38;5045842;28;20057;-66
2021/12/11 05:56:13;;;;;;;149.32;30.58;;;;;;;2.09;78.12;100505.75;5036098;28;20391;-66
2021/12/11 05:58:56;;;;;;;154.20;30.67;;;;;;;1.96;78.34;100511.16;5044378;28;20512;-66
2021/12/11 06:01:26;;;;;;;161.77;31.95;;;;;;;1.70;79.68;100522.94;5049094;28;20516;-66
2021/12/11 06:03:52;;;;;;;155.85;28.60;;;;;;;1.75;79.66;100513.34;5048979;28;20044;-66
2021/12/11 06:06:18;;;;;;;120.85;31.00;;;;;;;1.93;78.98;100526.75;5032879;28;20088;-66
2021/12/11 06:08:46;;;;;;;109.30;28.05;;;;;;;2.12;78.09;100531.53;5048656;28;20106;-66
2021/12/11 06:11:15;;;;;;;121.32;29.63;;;;;;;2.35;77.78;100542.28;5049557;28;20040;-66
2021/12/11 06:13:41;;;;;;;133.18;29.58;;;;;;;2.14;78.15;100548.75;5049319;28;20102;-66
2021/12/11 06:16:08;;;;;;;150.90;29.27;;;;;;;2.19;78.15;100546.06;5050527;28;20198;-66
2021/12/11 06:18:35;;;;;;;117.00;29.98;;;;;;;1.94;78.61;100553.47;5048152;28;20048;-66
2021/12/11 06:21:01;;;;;;;166.43;30.88;;;;;;;2.15;78.23;100563.38;5046723;28;20106;-66
2021/12/11 06:23:28;;;;;;;195.30;33.65;;;;;;;2.32;77.67;100563.91;5038701;28;20049;-66
2021/12/11 06:25:56;;;;;;;132.43;29.73;;;;;;;2.06;78.33;100568.75;5035596;28;20409;-66
2021/12/11 06:28:23;;;;;;;106.63;29.50;;;;;;;1.83;79.26;100571.78;5046929;28;20421;-66
2021/12/11 06:30:52;;;;;;;122.05;29.58;;;;;;;2.01;79.16;100573.16;5049040;28;20087;-66
2021/12/11 06:33:18;;;;;;;103.25;30.33;;;;;;;2.32;78.14;100573.41;5048745;28;20044;-66
2021/12/11 06:35:47;;;;;;;123.97;31.85;;;;;;;2.44;77.43;100575.69;5048371;28;20049;-66
2021/12/11 06:38:17;;;;;;;114.78;31.80;;;;;;;2.55;76.95;100585.84;5032776;28;20065;-66
2021/12/11 06:40:45;;;;;;;131.68;28.95;;;;;;;2.45;76.77;100600.69;5055115;28;20531;-66
2021/12/11 06:43:13;;;;;;;123.55;28.50;;;;;;;2.29;77.76;100607.91;5060374;28;20044;-66
2021/12/11 06:45:40;;;;;;;129.50;30.33;;;;;;;2.24;77.89;100608.91;5065677;28;20142;-66
2021/12/11 06:48:07;;;;;;;98.43;28.38;;;;;;;1.88;79.05;100628.56;5050670;28;20044;-66
2021/12/11 06:50:34;;;;;;;114.47;27.02;;;;;;;1.76;78.98;100619.28;5042283;28;20462;-67
2021/12/11 06:53:08;;;;;;;115.20;27.70;;;;;;;1.89;78.49;100620.75;5033085;28;20045;-66
2021/12/11 06:55:35;;;;;;;109.35;26.77;;;;;;;1.71;78.71;100634.03;5036819;28;20045;-66
2021/12/11 06:58:02;;;;;;;91.45;23.55;;;;;;;1.54;78.77;100635.19;5034171;28;20065;-66
2021/12/11 07:00:29;;;;;;;94.82;26.77;;;;;;;1.64;78.43;100640.19;5057404;28;20045;-66
2021/12/11 07:02:56;;;;;;;91.53;25.48;;;;;;;1.77;78.23;100646.00;5068641;28;20102;-66
2021/12/11 07:05:23;;;;;;;81.93;25.65;;;;;;;1.86;77.79;100649.25;5040212;28;20103;-66
2021/12/11 07:07:50;;;;;;;86.57;26.42;;;;;;;1.81;78.17;100661.41;5041024;28;20060;-66
2021/12/11 07:10:19;;;;;;;88.63;26.00;;;;;;;1.58;78.52;100668.72;5046425;28;20459;-66
2021/12/11 07:12:47;;;;;;;84.70;26.00;;;;;;;1.31;79.19;100674.31;5040449;28;20094;-66
2021/12/11 07:15:13;;;;;;;118.82;26.95;;;;;;;1.26;79.70;100669.19;5049434;28;20056;-66
2021/12/11 07:17:41;;;;;;;112.75;26.35;;;;;;;1.29;79.60;100678.66;5048219;28;20115;-67
2021/12/11 07:20:11;;;;;;;108.70;27.10;;;;;;;1.51;79.22;100677.44;5048718;28;20068;-66
2021/12/11 07:22:39;;;;;;;92.38;25.77;;;;;;;1.38;79.28;100681.09;5049917;28;20072;-66
2021/12/11 07:25:11;;;;;;;94.93;26.63;;;;;;;1.70;78.55;100686.59;5032342;28;20497;-66
2021/12/11 07:27:38;;;;;;;93.18;26.70;;;;;;;1.46;78.79;100698.19;5034769;28;20053;-66
2021/12/11 07:30:06;;;;;;;80.68;24.52;;;;;;;1.51;78.74;100698.13;5062331;28;20037;-66
2021/12/11 07:32:33;;;;;;;72.65;23.17;;;;;;;1.32;79.30;100707.00;5068613;28;20048;-66
2021/12/11 07:35:01;;;;;;;71.50;23.38;;;;;;;1.24;79.38;100712.28;5039854;28;20049;-66
2021/12/11 07:37:27;;;;;;;66.32;24.25;;;;;;;0.79;80.49;100718.06;5045766;28;20041;-66
2021/12/11 07:39:54;;;;;;;66.35;23.00;;;;;;;0.55;81.80;100718.34;5047907;28;20098;-66
2021/12/11 07:42:20;;;;;;;68.43;25.65;;;;;;;0.61;81.89;100724.28;5048027;28;20052;-66
2021/12/11 07:44:46;;;;;;;70.88;24.73;;;;;;;0.40;82.37;100737.44;5066745;28;20080;-66
2021/12/11 07:47:13;;;;;;;77.82;25.30;;;;;;;0.50;82.17;100733.88;5066249;28;20079;-66
2021/12/11 07:49:39;;;;;;;67.50;23.75;;;;;;;0.63;82.09;100724.28;5067980;28;20079;-66
2021/12/11 07:52:07;;;;;;;64.57;23.83;;;;;;;0.65;81.61;100748.34;5068512;28;20045;-66
2021/12/11 07:54:34;;;;;;;68.38;24.13;;;;;;;0.62;81.63;100759.56;5035657;28;20103;-66
2021/12/11 07:57:00;;;;;;;64.70;21.92;;;;;;;0.95;80.77;100756.59;5037610;28;20811;-66
2021/12/11 07:59:27;;;;;;;67.57;23.48;;;;;;;1.14;79.68;100764.09;5060119;28;20044;-66
2021/12/11 08:01:54;;;;;;;68.28;22.30;;;;;;;0.93;80.36;100771.22;5071994;28;20098;-66
2021/12/11 08:04:22;;;;;;;58.83;19.92;;;;;;;0.86;80.66;100772.16;5046856;28;20391;-66
2021/12/11 08:06:50;;;;;;;65.32;21.45;;;;;;;0.83;80.62;100773.94;5035927;28;20045;-65
2021/12/11 08:09:20;;;;;;;58.92;20.27;;;;;;;0.71;81.60;100774.06;5043935;28;20111;-65
2021/12/11 08:11:49;;;;;;;64.28;22.90;;;;;;;0.60;81.50;100776.75;5049958;28;20076;-65
2021/12/11 08:14:17;;;;;;;65.00;20.52;;;;;;;0.60;82.20;100784.50;5057801;28;20040;-65
2021/12/11 08:16:46;;;;;;;56.28;19.05;;;;;;;0.68;81.71;100799.91;5071028;28;20098;-65
2021/12/11 08:19:15;;;;;;;54.25;19.10;;;;;;;0.59;82.22;100785.38;5035544;28;20044;-65
2021/12/11 08:21:41;;;;;;;58.90;20.02;;;;;;;0.23;83.32;100798.63;5051199;28;20118;-65
2021/12/11 08:24:08;;;;;;;68.07;21.23;;;;;;;-0.01;84.40;100790.25;5050085;28;20430;-65
2021/12/11 08:26:40;;;;;;;60.05;21.50;;;;;;;-0.05;84.82;100801.44;5039453;28;20087;-65
2021/12/11 08:29:08;;;;;;;57.90;22.75;;;;;;;0.05;85.11;100806.50;5056136;28;20105;-65
2021/12/11 08:31:35;;;;;;;63.75;22.83;;;;;;;0.34;83.97;100807.09;5070961;28;20501;-65
2021/12/11 08:34:02;;;;;;;65.43;22.25;;;;;;;0.00;84.84;100801.41;5051281;28;20151;-65
2021/12/11 08:36:28;;;;;;;67.38;22.25;;;;;;;0.04;84.52;100815.13;5034790;28;20119;-65
2021/12/11 08:38:55;;;;;;;60.30;23.48;;;;;;;0.10;84.79;100815.06;5056482;28;20485;-65
2021/12/11 08:41:27;;;;;;;58.50;22.80;;;;;;;0.42;83.47;100815.63;5065187;28;20053;-65
2021/12/11 08:44:01;;;;;;;61.05;22.02;;;;;;;-0.09;85.29;100812.63;5050879;28;20416;-65
2021/12/11 08:46:29;;;;;;;54.58;21.35;;;;;;;-0.15;85.92;100817.81;5060531;28;20056;-65
2021/12/11 08:48:58;;;;;;;57.28;21.23;;;;;;;-0.18;86.55;100814.41;5050299;28;20497;-65
2021/12/11 08:51:31;;;;;;;68.35;21.83;;;;;;;0.25;nan;100825.25;5051961;28;20099;-65
2021/12/11 08:53:58;;;;;;;49.13;16.88;;;;;;;0.03;86.13;100811.69;5041789;28;20133;-65
2021/12/11 08:56:27;;;;;;;65.72;22.17;;;;;;;0.40;84.77;100813.09;5042459;28;20049;-65
2021/12/11 08:58:58;;;;;;;66.95;22.85;;;;;;;0.28;84.79;100830.38;5035068;28;20049;-65
2021/12/11 09:01:28;;;;;;;63.58;21.42;;;;;;;0.77;84.11;100836.81;5050332;28;20398;-65
2021/12/11 09:03:58;;;;;;;62.83;23.58;;;;;;;1.20;81.89;100844.94;5058503;28;20094;-65
2021/12/11 09:06:31;;;;;;;59.40;20.50;;;;;;;0.87;82.41;100847.88;5051321;28;20122;-65
2021/12/11 09:09:01;;;;;;;68.93;23.45;;;;;;;1.30;80.65;100862.00;5050514;28;20044;-65
2021/12/11 09:11:30;;;;;;;72.30;22.88;;;;;;;1.71;79.88;100861.47;5050014;28;20049;-65
2021/12/11 09:14:01;;;;;;;67.88;22.95;;;;;;;1.98;78.75;100861.97;5062144;28;20040;-65
2021/12/11 09:16:31;;;;;;;60.78;22.30;;;;;;;1.92;77.92;100857.75;5049444;28;20056;-65
2021/12/11 09:19:02;;;;;;;69.28;23.70;;;;;;;1.30;81.21;100874.06;5050215;28;20061;-65
2021/12/11 09:21:32;;;;;;;68.10;25.75;;;;;;;1.54;80.73;100871.19;5051019;28;20045;-65
2021/12/11 09:24:04;;;;;;;58.13;20.42;;;;;;;1.41;80.74;100887.72;5046555;28;20099;-65
2021/12/11 09:26:35;;;;;;;69.70;24.00;;;;;;;1.44;80.76;100870.44;5039855;28;20068;-65
2021/12/11 09:29:12;;;;;;;71.72;23.38;;;;;;;1.48;81.43;100886.75;5049982;28;20118;-65
2021/12/11 09:31:42;;;;;;;85.45;26.60;;;;;;;1.40;81.13;100875.69;5049972;28;20044;-65
2021/12/11 09:34:17;;;;;;;80.38;26.45;;;;;;;1.79;80.48;100877.75;5045498;28;20378;-65
2021/12/11 09:36:48;;;;;;;75.13;25.13;;;;;;;1.88;80.30;100879.38;5044840;28;20053;-65
2021/12/11 09:39:18;;;;;;;75.28;28.02;;;;;;;1.90;79.68;100891.38;5049615;28;20051;-65
2021/12/11 09:41:44;;;;;;;74.78;26.58;;;;;;;1.98;79.78;100896.44;5055367;28;20041;-65
2021/12/11 09:44:15;;;;;;;75.32;27.02;;;;;;;2.19;78.44;100895.28;5069870;28;20666;-65
2021/12/11 09:46:45;;;;;;;60.88;24.52;;;;;;;2.29;78.13;100908.03;5061320;28;20100;-65
2021/12/11 09:49:15;;;;;;;73.22;24.63;;;;;;;2.57;77.76;100903.28;5051842;28;20072;-63
2021/12/11 09:51:45;;;;;;;68.25;24.70;;;;;;;2.08;78.71;100913.53;5049306;28;20063;-64
2021/12/11 09:54:15;;;;;;;75.15;24.30;;;;;;;2.07;78.90;100916.16;5038790;28;20462;-66
2021/12/11 09:56:45;;;;;;;68.93;25.63;;;;;;;2.12;78.71;100909.16;5048534;28;20306;-66
2021/12/11 09:59:17;;;;;;;73.03;25.27;;;;;;;2.12;79.13;100909.16;5049038;28;20055;-66
2021/12/11 10:01:48;;;;;;;63.45;24.02;;;;;;;2.45;78.18;100924.19;5049226;28;20070;-66
2021/12/11 10:04:19;;;;;;;56.70;22.35;;;;;;;2.17;78.92;100928.06;5049469;28;20142;-66
2021/12/11 10:07:02;;;;;;;;;;;;;;;2.34;78.69;100926.09;5049641;28;20469;-66
2021/12/11 10:09:35;;;;;;;66.95;23.13;;;;;;;2.17;79.32;100922.91;5033041;28;20356;-66
2021/12/11 10:12:05;;;;;;;58.40;21.60;;;;;;;2.20;79.14;100925.44;5059361;28;20045;-66
2021/12/11 10:14:36;;;;;;;61.00;22.70;;;;;;;2.34;79.12;100931.25;5048727;28;20497;-66
2021/12/11 10:17:08;;;;;;;59.13;21.10;;;;;;;2.58;78.69;100940.41;5058613;28;20072;-66
2021/12/11 10:19:36;;;;;;;63.72;23.23;;;;;;;2.45;78.83;100945.75;5049380;28;20049;-66
2021/12/11 10:22:09;;;;;;;71.38;23.92;;;;;;;2.61;78.35;100951.56;5051950;28;20507;-66
2021/12/11 10:24:37;;;;;;;62.70;23.80;;;;;;;2.62;78.20;100960.19;5049370;28;20041;-66
2021/12/11 10:27:08;;;;;;;71.63;24.98;;;;;;;2.75;78.22;100965.13;5053306;28;20148;-66
2021/12/11 10:29:35;;;;;;;;;;;;;;;2.38;79.03;100949.31;5049178;28;20041;-66
2021/12/11 10:32:07;;;;;;;65.10;23.88;;;;;;;2.76;78.46;100959.06;5049281;28;19948;-66
2021/12/11 10:34:35;;;;;;;78.82;26.13;;;;;;;2.40;80.38;100957.06;5052518;28;20501;-66
2021/12/11 10:37:06;;;;;;;69.18;24.52;;;;;;;2.68;78.91;100963.53;5048837;28;20069;-66
2021/12/11 10:39:34;;;;;;;60.40;22.33;;;;;;;2.48;79.39;100959.53;5046835;28;20230;-66
2021/12/11 10:42:01;;;;;;;80.78;25.95;;;;;;;2.55;79.99;100961.97;5041758;28;20077;-66
2021/12/11 10:44:32;;;;;;;71.22;25.65;;;;;;;2.44;79.69;100963.88;5033682;28;20819;-66
2021/12/11 10:47:03;;;;;;;70.65;25.75;;;;;;;2.41;79.62;100958.75;5048333;28;20045;-66
2021/12/11 10:49:32;;;;;;;75.32;26.38;;;;;;;2.79;79.14;100965.94;5046731;28;20107;-66
2021/12/11 10:52:02;;;;;;;100.28;30.38;;;;;;;2.81;79.21;100970.19;5032736;28;20045;-66
2021/12/11 10:54:29;;;;;;;85.63;28.55;;;;;;;2.85;78.75;100971.84;5048069;28;20048;-66
2021/12/11 10:56:56;;;;;;;81.82;28.02;;;;;;;2.43;79.50;100964.78;5032466;28;20046;-67
2021/12/11 10:59:26;;;;;;;97.40;31.08;;;;;;;2.53;80.28;100973.25;5043034;28;20059;-66
2021/12/11 11:01:56;;;;;;;91.18;29.55;;;;;;;2.71;79.72;100963.47;5048486;28;20076;-67
2021/12/11 11:04:27;;;;;;;108.22;33.20;;;;;;;2.71;79.84;100973.81;5046178;28;20072;-66
2021/12/11 11:06:55;;;;;;;105.47;29.38;;;;;;;2.50;80.46;100975.88;5028159;28;20130;-66
2021/12/11 11:09:23;;;;;;;100.00;29.60;;;;;;;2.88;79.96;100981.34;5040392;28;20068;-66
2021/12/11 11:11:52;;;;;;;81.15;26.95;;;;;;;2.59;79.77;100984.34;5048339;28;20045;-66
2021/12/11 11:14:19;;;;;;;94.32;29.67;;;;;;;2.70;79.80;100990.22;5036672;28;20104;-66
2021/12/11 11:16:51;;;;;;;89.20;27.52;;;;;;;2.72;80.34;100983.31;5067964;28;20044;-66
2021/12/11 11:19:19;;;;;;;82.13;27.40;;;;;;;2.33;80.84;101000.28;5057276;28;20492;-66
2021/12/11 11:21:50;;;;;;;88.40;28.00;;;;;;;2.35;81.31;100997.66;5049490;28;20044;-66
2021/12/11 11:24:17;;;;;;;80.88;26.52;;;;;;;2.33;81.50;100996.81;5060083;28;20069;-66
2021/12/11 11:26:46;;;;;;;83.00;27.88;;;;;;;2.27;81.61;100989.16;5048210;28;20068;-66
2021/12/11 11:29:17;;;;;;;82.78;29.30;;;;;;;2.75;80.31;100998.78;5065506;28;20484;-66